Архив погоды в Канске

Метеограмма Канск
Среда, 19 Июня
Время местн. Темп Ветер Видим Явления Облачность нижн/средн/верх Атм. давл. Влжн Точка росы ВНГО R Сост. почвы Tg s
Напр Скр Прв ур.ст ур.м изм
19:00 +25.2° З 1 - 20 км - преимущественно облачно 739 756 +0.9 38% +9.8° 1 км 0 - - -
16:00 +25.6° З 2 - 20 км - облачно с прояснениями 738 755 +0.7 36% +9.4° 1 км - - - -
13:00 +27.3° З 4 - 20 км - переменная облачность 737 754 +0.5 32% +9° более 2.5 км - - - -
10:00 +22.1° В 2 - 20 км - переменная облачность 737 754 -0.3 45% +9.5° более 2.5 км - - - -
07:00 +16° В,Ю-В 4 - 20 км - ясно 737 755 -0.6 59% +8.1° более 2.5 км 0 Сухая (без трещин) +11° -
04:00 +12.5° В,Ю-В 3 - 20 км - ясно 738 756 -1.1 62% +5.4° более 2.5 км - - - -
01:00 +11.5° В 1 - - - ясно 739 757 -1.3 70% +6.2° более 2.5 км - - - -
Вторник, 18 Июня
Время местн. Темп Ветер Видим Явления Облачность нижн/средн/верх Атм. давл. Влжн Точка росы ВНГО R Сост. почвы Tg s
Напр Скр Прв ур.ст ур.м изм
22:00 +17° В 3 - 20 км - переменная облачность 740 758 -0.5 45% +5.1° более 2.5 км - - - -
19:00 +22.1° В 4 10 20 км - переменная облачность 741 758 -1.5 31% +4.4° более 2.5 км 0 - - -
16:00 +22.6° Ю-В 3 - 20 км - переменная облачность 742 760 -1.3 30% +4.3° 1 км - - - -
13:00 +21° Ю-В 3 - 20 км - облачно с прояснениями 743 761 -1.2 34% +4.7° 1 км - - - -
10:00 +17.8° Ю 1 - 20 км - ясно 745 762 -0.3 48% +6.8° более 2.5 км - - - -
07:00 +11.8° В,Ю-В 2 - 20 км - ясно 745 763 +0.6 77% +7.9° более 2.5 км 0 Влажная (без луж) +5° -
04:00 +6° В,Ю-В 1 - 20 км - переменная облачность 744 763 +0.5 94% +5.1° более 2.5 км - - - -
01:00 +8.1° штиль 0 - - - переменная облачность 744 762 +0.9 87% +6.1° более 2.5 км - - - -
Понедельник, 17 Июня
Время местн. Темп Ветер Видим Явления Облачность нижн/средн/верх Атм. давл. Влжн Точка росы ВНГО R Сост. почвы Tg s
Напр Скр Прв ур.ст ур.м изм
22:00 +12.8° З 1 - 20 км - облачно с прояснениями 743 761 +1.3 68% +7° 1 км - - - -
19:00 +15.5° З 2 - 20 км - преимущественно облачно 742 760 +1.1 60% +7.7° 1 км 5 - - -
16:00 +15.1° З 4 10 20 км - облачно 741 759 +1.3 63% +8.2° 1 км - - - -
13:00 +14.2° З 5 12 20 км небо без изменений {ливневые осадки} облачно 739 757 +2.3 69% +8.7° 1 км - - - -
10:00 +14.5° З 2 - 20 км ливневый дождь преимущественно облачно 737 755 +2.6 87% +12.3° 1 км - - - -
07:00 +19.8° З 1 - 20 км - облачно с прояснениями 734 752 +0.8 76% +15.4° 1 км 0 Сухая (без трещин) +13° -
04:00 +12° Ю,Ю-З 1 - 4 км дымка переменная облачность 734 752 -0.2 94% +11° более 2.5 км - - - -
01:00 +15.6° Ю-В 1 - - - облачно с прояснениями 734 752 -0.5 82% +12.5° более 2.5 км - - - -
Воскресенье, 16 Июня
Время местн. Темп Ветер Видим Явления Облачность нижн/средн/верх Атм. давл. Влжн Точка росы ВНГО R Сост. почвы Tg s
Напр Скр Прв ур.ст ур.м изм
22:00 +21.2° В 3 - 20 км - облачно с прояснениями 734 752 +0.5 54% +11.5° более 2.5 км - - - -
19:00 +25.7° В,Ю-В 4 - 20 км - облачно с прояснениями 734 751 -0.1 47% +13.5° более 2.5 км 0 - - -
16:00 +28.1° В 2 - 20 км - преимущественно облачно 734 751 -1.4 36% +11.7° 1 км - - - -